sensor_id;sensor_type;location;lat;lon;timestamp;pressure;altitude;pressure_sealevel;temperature;humidity
28079;BME280;15388;42.238;24.684;2022-08-01T00:00:31;99091.75;;;21.45;87.10
28079;BME280;15388;42.238;24.684;2022-08-01T00:02:57;99088.69;;;21.35;87.54
28079;BME280;15388;42.238;24.684;2022-08-01T00:05:22;99081.28;;;21.23;88.23
28079;BME280;15388;42.238;24.684;2022-08-01T00:07:47;99079.50;;;21.10;89.20
28079;BME280;15388;42.238;24.684;2022-08-01T00:10:14;99082.97;;;21.18;89.46
28079;BME280;15388;42.238;24.684;2022-08-01T00:12:39;99078.44;;;21.11;89.35
28079;BME280;15388;42.238;24.684;2022-08-01T00:15:06;99079.06;;;21.13;90.12
28079;BME280;15388;42.238;24.684;2022-08-01T00:17:32;99078.00;;;21.15;90.14
28079;BME280;15388;42.238;24.684;2022-08-01T00:19:57;99078.00;;;21.15;89.88
28079;BME280;15388;42.238;24.684;2022-08-01T00:22:23;99082.81;;;21.12;90.21
28079;BME280;15388;42.238;24.684;2022-08-01T00:24:48;99082.13;;;21.17;89.89
28079;BME280;15388;42.238;24.684;2022-08-01T00:27:13;99084.41;;;21.20;89.98
28079;BME280;15388;42.238;24.684;2022-08-01T00:29:38;99076.97;;;21.16;89.05
28079;BME280;15388;42.238;24.684;2022-08-01T00:32:04;99079.06;;;21.13;87.83
28079;BME280;15388;42.238;24.684;2022-08-01T00:34:29;99072.22;;;21.04;87.87
28079;BME280;15388;42.238;24.684;2022-08-01T00:36:54;99073.28;;;21.03;87.96
28079;BME280;15388;42.238;24.684;2022-08-01T00:39:20;99080.81;;;21.01;88.41
28079;BME280;15388;42.238;24.684;2022-08-01T00:41:45;99084.53;;;21.00;88.42
28079;BME280;15388;42.238;24.684;2022-08-01T00:44:10;99090.41;;;20.90;88.04
28079;BME280;15388;42.238;24.684;2022-08-01T00:46:35;99093.13;;;20.83;88.43
28079;BME280;15388;42.238;24.684;2022-08-01T00:49:01;99084.22;;;20.76;89.22
28079;BME280;15388;42.238;24.684;2022-08-01T00:51:26;99083.44;;;20.62;90.36
28079;BME280;15388;42.238;24.684;2022-08-01T00:53:52;99087.81;;;20.63;90.36
28079;BME280;15388;42.238;24.684;2022-08-01T00:56:21;99080.53;;;20.64;90.90
28079;BME280;15388;42.238;24.684;2022-08-01T00:58:48;99090.91;;;20.67;90.47
28079;BME280;15388;42.238;24.684;2022-08-01T01:01:14;99089.66;;;20.69;91.00
28079;BME280;15388;42.238;24.684;2022-08-01T01:03:39;99083.44;;;20.62;91.27
28079;BME280;15388;42.238;24.684;2022-08-01T01:08:43;99080.59;;;20.43;92.90
28079;BME280;15388;42.238;24.684;2022-08-01T01:11:13;99078.09;;;20.42;92.80
28079;BME280;15388;42.238;24.684;2022-08-01T01:13:43;99083.09;;;20.45;93.22
28079;BME280;15388;42.238;24.684;2022-08-01T01:16:13;99079.75;;;20.43;93.59
28079;BME280;15388;42.238;24.684;2022-08-01T01:18:45;99085.63;;;20.26;93.43
28079;BME280;15388;42.238;24.684;2022-08-01T01:31:31;99087.66;;;20.51;85.98
28079;BME280;15388;42.238;24.684;2022-08-01T01:33:58;99094.28;;;20.55;85.25
28079;BME280;15388;42.238;24.684;2022-08-01T01:36:24;99082.22;;;20.58;84.54
28079;BME280;15388;42.238;24.684;2022-08-01T01:38:51;99075.97;;;20.57;84.78
28079;BME280;15388;42.238;24.684;2022-08-01T01:41:17;99076.41;;;20.54;84.96
28079;BME280;15388;42.238;24.684;2022-08-01T01:43:43;99078.06;;;20.55;85.48
28079;BME280;15388;42.238;24.684;2022-08-01T01:46:11;99077.44;;;20.53;85.82
28079;BME280;15388;42.238;24.684;2022-08-01T01:48:37;99081.81;;;20.47;86.94
28079;BME280;15388;42.238;24.684;2022-08-01T01:51:04;99076.44;;;20.41;87.85
28079;BME280;15388;42.238;24.684;2022-08-01T01:53:29;99074.41;;;20.29;88.44
28079;BME280;15388;42.238;24.684;2022-08-01T01:55:57;99073.59;;;20.22;89.22
28079;BME280;15388;42.238;24.684;2022-08-01T01:58:23;99073.59;;;20.22;89.33
28079;BME280;15388;42.238;24.684;2022-08-01T02:00:49;99075.06;;;20.18;89.37
28079;BME280;15388;42.238;24.684;2022-08-01T02:03:16;99080.88;;;20.15;89.30
28079;BME280;15388;42.238;24.684;2022-08-01T02:05:42;99083.38;;;20.16;88.84
28079;BME280;15388;42.238;24.684;2022-08-01T02:08:09;99080.03;;;20.14;88.52
28079;BME280;15388;42.238;24.684;2022-08-01T02:10:35;99086.47;;;20.20;87.35
28079;BME280;15388;42.238;24.684;2022-08-01T02:13:01;99089.81;;;20.22;86.45
28079;BME280;15388;42.238;24.684;2022-08-01T02:15:28;99089.19;;;20.27;85.14
28079;BME280;15388;42.238;24.684;2022-08-01T02:17:54;99083.13;;;20.38;84.18
28079;BME280;15388;42.238;24.684;2022-08-01T02:20:21;99081.44;;;20.44;83.69
28079;BME280;15388;42.238;24.684;2022-08-01T02:22:49;99088.69;;;20.43;83.71
28079;BME280;15388;42.238;24.684;2022-08-01T02:25:20;99081.81;;;20.47;83.45
28079;BME280;15388;42.238;24.684;2022-08-01T02:27:57;99084.94;;;20.51;83.32
28079;BME280;15388;42.238;24.684;2022-08-01T02:30:25;99081.81;;;20.47;83.00
28079;BME280;15388;42.238;24.684;2022-08-01T02:32:52;99088.31;;;20.33;83.50
28079;BME280;15388;42.238;24.684;2022-08-01T02:35:28;99083.53;;;20.28;83.78
28079;BME280;15388;42.238;24.684;2022-08-01T02:37:55;99079.81;;;20.29;83.45
28079;BME280;15388;42.238;24.684;2022-08-01T02:40:22;99084.41;;;20.22;83.51
28079;BME280;15388;42.238;24.684;2022-08-01T02:42:49;99089.00;;;20.15;83.78
28079;BME280;15388;42.238;24.684;2022-08-01T02:45:17;99083.16;;;20.11;83.92
28079;BME280;15388;42.238;24.684;2022-08-01T02:47:42;99081.09;;;20.06;83.84
28079;BME280;15388;42.238;24.684;2022-08-01T02:50:10;99082.97;;;20.13;84.01
28079;BME280;15388;42.238;24.684;2022-08-01T02:52:37;99079.44;;;20.05;84.24
28079;BME280;15388;42.238;24.684;2022-08-01T02:55:03;99082.34;;;19.97;85.08
28079;BME280;15388;42.238;24.684;2022-08-01T02:57:29;99081.09;;;19.93;85.47
28079;BME280;15388;42.238;24.684;2022-08-01T02:59:55;99080.88;;;19.88;85.86
28079;BME280;15388;42.238;24.684;2022-08-01T03:02:23;99080.25;;;19.79;86.03
28079;BME280;15388;42.238;24.684;2022-08-01T03:04:50;99085.44;;;19.80;85.97
28079;BME280;15388;42.238;24.684;2022-08-01T03:07:17;99076.13;;;19.76;85.82
28079;BME280;15388;42.238;24.684;2022-08-01T03:09:43;99083.81;;;19.72;85.79
28079;BME280;15388;42.238;24.684;2022-08-01T03:12:14;99079.84;;;19.68;85.93
28079;BME280;15388;42.238;24.684;2022-08-01T03:14:40;99078.22;;;19.60;85.93
28079;BME280;15388;42.238;24.684;2022-08-01T03:17:07;99081.09;;;19.66;85.74
28079;BME280;15388;42.238;24.684;2022-08-01T03:19:33;99074.47;;;19.62;86.08
28079;BME280;15388;42.238;24.684;2022-08-01T03:22:01;99076.53;;;19.59;86.03
28079;BME280;15388;42.238;24.684;2022-08-01T03:24:28;99077.16;;;19.48;86.78
28079;BME280;15388;42.238;24.684;2022-08-01T03:26:54;99082.34;;;19.43;87.05
28079;BME280;15388;42.238;24.684;2022-08-01T03:29:21;99085.84;;;19.37;87.42
28079;BME280;15388;42.238;24.684;2022-08-01T03:31:49;99085.25;;;19.34;87.72
28079;BME280;15388;42.238;24.684;2022-08-01T03:34:15;99079.84;;;19.34;88.16
28079;BME280;15388;42.238;24.684;2022-08-01T03:39:12;99084.63;;;19.26;88.28
28079;BME280;15388;42.238;24.684;2022-08-01T03:41:40;99086.47;;;19.25;88.07
28079;BME280;15388;42.238;24.684;2022-08-01T03:44:13;99087.31;;;19.26;88.61
28079;BME280;15388;42.238;24.684;2022-08-01T03:46:42;99095.00;;;19.29;87.87
28079;BME280;15388;42.238;24.684;2022-08-01T03:49:10;99088.97;;;19.27;88.06
28079;BME280;15388;42.238;24.684;2022-08-01T03:51:36;99092.28;;;19.22;88.05
28079;BME280;15388;42.238;24.684;2022-08-01T03:54:03;99086.06;;;19.28;87.36
28079;BME280;15388;42.238;24.684;2022-08-01T03:56:28;99096.00;;;19.28;87.74
28079;BME280;15388;42.238;24.684;2022-08-01T03:58:56;99099.34;;;19.37;87.66
28079;BME280;15388;42.238;24.684;2022-08-01T04:01:22;99099.75;;;19.33;88.07
28079;BME280;15388;42.238;24.684;2022-08-01T04:03:48;99098.09;;;19.32;88.08
28079;BME280;15388;42.238;24.684;2022-08-01T04:06:13;99106.00;;;19.34;87.78
28079;BME280;15388;42.238;24.684;2022-08-01T04:08:39;99103.94;;;19.43;87.39
28079;BME280;15388;42.238;24.684;2022-08-01T04:11:07;99101.44;;;19.48;86.41
28079;BME280;15388;42.238;24.684;2022-08-01T04:13:32;99095.63;;;19.51;86.08
28079;BME280;15388;42.238;24.684;2022-08-01T04:15:58;99101.44;;;19.62;84.57
28079;BME280;15388;42.238;24.684;2022-08-01T04:18:23;99100.19;;;19.64;83.97
28079;BME280;15388;42.238;24.684;2022-08-01T04:20:48;99101.03;;;19.71;83.92
28079;BME280;15388;42.238;24.684;2022-08-01T04:23:15;99090.66;;;19.75;82.98
28079;BME280;15388;42.238;24.684;2022-08-01T04:25:41;99098.75;;;19.89;82.42
28079;BME280;15388;42.238;24.684;2022-08-01T04:28:07;99095.22;;;19.88;82.30
28079;BME280;15388;42.238;24.684;2022-08-01T04:30:36;99094.78;;;19.98;81.01
28079;BME280;15388;42.238;24.684;2022-08-01T04:33:04;99098.16;;;20.00;81.08
28079;BME280;15388;42.238;24.684;2022-08-01T04:35:30;99098.75;;;20.02;81.49
28079;BME280;15388;42.238;24.684;2022-08-01T04:37:57;99095.84;;;20.10;80.86
28079;BME280;15388;42.238;24.684;2022-08-01T04:40:24;99099.56;;;20.23;80.16
28079;BME280;15388;42.238;24.684;2022-08-01T04:42:51;99099.16;;;20.26;80.33
28079;BME280;15388;42.238;24.684;2022-08-01T04:45:16;99098.50;;;20.38;79.42
28079;BME280;15388;42.238;24.684;2022-08-01T04:47:42;99093.91;;;20.45;78.38
28079;BME280;15388;42.238;24.684;2022-08-01T04:50:08;99092.22;;;20.51;78.19
28079;BME280;15388;42.238;24.684;2022-08-01T04:52:34;99094.25;;;20.62;77.68
28079;BME280;15388;42.238;24.684;2022-08-01T04:55:00;99099.59;;;20.75;77.83
28079;BME280;15388;42.238;24.684;2022-08-01T04:57:26;99093.72;;;20.85;76.82
28079;BME280;15388;42.238;24.684;2022-08-01T04:59:52;99094.56;;;20.93;76.13
28079;BME280;15388;42.238;24.684;2022-08-01T05:02:21;99095.34;;;21.00;75.57
28079;BME280;15388;42.238;24.684;2022-08-01T05:04:47;99099.50;;;21.03;75.85
28079;BME280;15388;42.238;24.684;2022-08-01T05:07:13;99098.38;;;21.17;74.70
28079;BME280;15388;42.238;24.684;2022-08-01T05:09:38;99104.34;;;21.26;74.61
28079;BME280;15388;42.238;24.684;2022-08-01T05:12:06;99100.09;;;21.44;73.11
28079;BME280;15388;42.238;24.684;2022-08-01T05:14:32;99092.75;;;21.51;72.57
28079;BME280;15388;42.238;24.684;2022-08-01T05:16:58;99103.69;;;21.63;70.80
28079;BME280;15388;42.238;24.684;2022-08-01T05:19:25;99105.53;;;21.69;71.15
28079;BME280;15388;42.238;24.684;2022-08-01T05:21:50;99097.38;;;21.76;69.95
28079;BME280;15388;42.238;24.684;2022-08-01T05:24:15;99101.91;;;21.82;68.79
28079;BME280;15388;42.238;24.684;2022-08-01T05:26:41;99098.13;;;21.83;68.35
28079;BME280;15388;42.238;24.684;2022-08-01T05:29:06;99099.31;;;21.94;67.74
28079;BME280;15388;42.238;24.684;2022-08-01T05:31:32;99092.47;;;21.92;67.58
28079;BME280;15388;42.238;24.684;2022-08-01T05:33:59;99096.16;;;21.97;66.92
28079;BME280;15388;42.238;24.684;2022-08-01T05:36:25;99090.97;;;22.14;65.57
28079;BME280;15388;42.238;24.684;2022-08-01T05:38:50;99096.53;;;22.20;65.23
28079;BME280;15388;42.238;24.684;2022-08-01T05:41:15;99088.59;;;22.25;64.53
28079;BME280;15388;42.238;24.684;2022-08-01T05:43:40;99087.00;;;22.36;63.64
28079;BME280;15388;42.238;24.684;2022-08-01T05:46:06;99100.00;;;22.46;63.05
28079;BME280;15388;42.238;24.684;2022-08-01T05:48:31;99092.81;;;22.58;62.92
28079;BME280;15388;42.238;24.684;2022-08-01T05:50:56;99085.97;;;22.74;61.93
28079;BME280;15388;42.238;24.684;2022-08-01T05:53:22;99096.25;;;22.84;59.53
28079;BME280;15388;42.238;24.684;2022-08-01T05:55:47;99101.97;;;22.95;58.64
28079;BME280;15388;42.238;24.684;2022-08-01T05:58:13;99101.41;;;23.05;58.51
28079;BME280;15388;42.238;24.684;2022-08-01T06:00:38;99095.44;;;23.14;57.04
28079;BME280;15388;42.238;24.684;2022-08-01T06:03:04;99092.53;;;23.28;55.25
28079;BME280;15388;42.238;24.684;2022-08-01T06:05:29;99097.25;;;23.33;53.99
28079;BME280;15388;42.238;24.684;2022-08-01T06:07:55;99091.28;;;23.43;51.69
28079;BME280;15388;42.238;24.684;2022-08-01T06:10:20;99079.50;;;23.49;51.86
28079;BME280;15388;42.238;24.684;2022-08-01T06:12:45;99085.06;;;23.66;51.13
28079;BME280;15388;42.238;24.684;2022-08-01T06:15:11;99081.44;;;23.84;51.69
28079;BME280;15388;42.238;24.684;2022-08-01T06:17:36;99085.09;;;23.90;50.59
28079;BME280;15388;42.238;24.684;2022-08-01T06:20:02;99078.38;;;23.92;49.05
28079;BME280;15388;42.238;24.684;2022-08-01T06:22:27;99076.00;;;24.08;49.28
28079;BME280;15388;42.238;24.684;2022-08-01T06:24:52;99070.47;;;24.15;48.55
28079;BME280;15388;42.238;24.684;2022-08-01T06:27:18;99087.81;;;24.26;47.04
28079;BME280;15388;42.238;24.684;2022-08-01T06:29:43;99067.63;;;24.34;46.44
28079;BME280;15388;42.238;24.684;2022-08-01T06:32:09;99071.34;;;24.45;46.46
28079;BME280;15388;42.238;24.684;2022-08-01T06:34:34;99065.06;;;24.56;46.23
28079;BME280;15388;42.238;24.684;2022-08-01T06:37:00;99064.09;;;24.62;46.28
28079;BME280;15388;42.238;24.684;2022-08-01T06:39:25;99062.19;;;24.75;46.46
28079;BME280;15388;42.238;24.684;2022-08-01T06:41:50;99065.59;;;24.82;46.19
28079;BME280;15388;42.238;24.684;2022-08-01T06:44:15;99072.44;;;24.85;45.49
28079;BME280;15388;42.238;24.684;2022-08-01T06:46:41;99057.63;;;24.92;46.27
28079;BME280;15388;42.238;24.684;2022-08-01T06:49:06;99056.00;;;25.09;45.79
28079;BME280;15388;42.238;24.684;2022-08-01T06:51:31;99054.22;;;25.14;44.80
28079;BME280;15388;42.238;24.684;2022-08-01T06:53:57;99058.19;;;25.24;44.75
28079;BME280;15388;42.238;24.684;2022-08-01T06:56:22;99064.53;;;25.29;44.36
28079;BME280;15388;42.238;24.684;2022-08-01T06:58:48;99075.00;;;25.38;44.93
28079;BME280;15388;42.238;24.684;2022-08-01T07:01:14;99057.28;;;25.35;44.91
28079;BME280;15388;42.238;24.684;2022-08-01T07:03:39;99058.44;;;25.39;45.37
28079;BME280;15388;42.238;24.684;2022-08-01T07:06:04;99054.06;;;25.55;46.07
28079;BME280;15388;42.238;24.684;2022-08-01T07:08:29;99054.09;;;25.73;40.67
28079;BME280;15388;42.238;24.684;2022-08-01T07:10:55;99044.56;;;25.92;39.67
28079;BME280;15388;42.238;24.684;2022-08-01T07:13:24;99038.69;;;26.01;39.36
28079;BME280;15388;42.238;24.684;2022-08-01T07:15:50;99038.31;;;26.14;39.29
28079;BME280;15388;42.238;24.684;2022-08-01T07:18:15;99038.53;;;26.30;38.61
28079;BME280;15388;42.238;24.684;2022-08-01T07:20:40;99036.66;;;26.30;38.40
28079;BME280;15388;42.238;24.684;2022-08-01T07:23:05;99046.03;;;26.40;37.63
28079;BME280;15388;42.238;24.684;2022-08-01T07:25:31;99040.75;;;26.33;36.82
28079;BME280;15388;42.238;24.684;2022-08-01T07:27:56;99037.63;;;26.41;37.49
28079;BME280;15388;42.238;24.684;2022-08-01T07:30:21;99030.44;;;26.35;37.44
28079;BME280;15388;42.238;24.684;2022-08-01T07:32:47;99032.25;;;26.52;37.62
28079;BME280;15388;42.238;24.684;2022-08-01T07:35:12;99048.94;;;26.55;36.58
28079;BME280;15388;42.238;24.684;2022-08-01T07:37:37;99045.78;;;26.41;36.86
28079;BME280;15388;42.238;24.684;2022-08-01T07:40:03;99033.53;;;26.44;36.90
28079;BME280;15388;42.238;24.684;2022-08-01T07:42:29;99031.25;;;26.58;36.70
28079;BME280;15388;42.238;24.684;2022-08-01T07:44:54;99028.03;;;26.66;36.90
28079;BME280;15388;42.238;24.684;2022-08-01T07:47:24;99022.91;;;26.70;36.84
28079;BME280;15388;42.238;24.684;2022-08-01T07:49:49;99021.16;;;26.86;37.11
28079;BME280;15388;42.238;24.684;2022-08-01T07:52:14;99031.25;;;26.86;36.31
28079;BME280;15388;42.238;24.684;2022-08-01T07:54:40;99015.38;;;26.82;36.42
28079;BME280;15388;42.238;24.684;2022-08-01T07:57:05;99016.97;;;27.01;36.74
28079;BME280;15388;42.238;24.684;2022-08-01T07:59:31;99014.94;;;26.91;36.18
28079;BME280;15388;42.238;24.684;2022-08-01T08:01:56;99017.50;;;26.98;36.45
28079;BME280;15388;42.238;24.684;2022-08-01T08:04:21;99026.31;;;27.10;35.74
28079;BME280;15388;42.238;24.684;2022-08-01T08:06:46;99002.75;;;26.99;36.12
28079;BME280;15388;42.238;24.684;2022-08-01T08:09:12;98995.84;;;27.18;36.19
28079;BME280;15388;42.238;24.684;2022-08-01T08:11:38;99006.53;;;27.25;36.30
28079;BME280;15388;42.238;24.684;2022-08-01T08:14:03;98997.56;;;27.30;36.56
28079;BME280;15388;42.238;24.684;2022-08-01T08:16:28;98994.84;;;27.35;35.47
28079;BME280;15388;42.238;24.684;2022-08-01T08:18:53;99007.91;;;27.28;35.76
28079;BME280;15388;42.238;24.684;2022-08-01T08:21:19;99008.78;;;27.33;35.80
28079;BME280;15388;42.238;24.684;2022-08-01T08:23:44;99004.66;;;27.31;36.08
28079;BME280;15388;42.238;24.684;2022-08-01T08:26:28;99008.97;;;27.21;35.67
28079;BME280;15388;42.238;24.684;2022-08-01T08:28:53;99001.94;;;27.31;36.28
28079;BME280;15388;42.238;24.684;2022-08-01T08:31:19;99004.22;;;27.44;35.88
28079;BME280;15388;42.238;24.684;2022-08-01T08:33:44;99009.16;;;27.47;35.83
28079;BME280;15388;42.238;24.684;2022-08-01T08:36:09;99009.09;;;27.42;35.87
28079;BME280;15388;42.238;24.684;2022-08-01T08:38:36;99008.13;;;27.54;35.36
28079;BME280;15388;42.238;24.684;2022-08-01T08:41:01;99003.97;;;27.46;35.47
28079;BME280;15388;42.238;24.684;2022-08-01T08:43:27;98998.94;;;27.70;36.47
28079;BME280;15388;42.238;24.684;2022-08-01T08:45:54;98999.28;;;27.79;35.42
28079;BME280;15388;42.238;24.684;2022-08-01T08:48:19;98994.06;;;27.78;35.37
28079;BME280;15388;42.238;24.684;2022-08-01T08:50:45;98984.81;;;27.84;35.58
28079;BME280;15388;42.238;24.684;2022-08-01T08:53:13;98989.25;;;27.90;36.10
28079;BME280;15388;42.238;24.684;2022-08-01T08:55:39;98983.03;;;28.16;35.58
28079;BME280;15388;42.238;24.684;2022-08-01T08:58:04;98980.72;;;27.87;35.30
28079;BME280;15388;42.238;24.684;2022-08-01T09:00:31;98983.78;;;28.01;35.79
28079;BME280;15388;42.238;24.684;2022-08-01T09:02:56;98980.31;;;28.16;35.41
28079;BME280;15388;42.238;24.684;2022-08-01T09:05:22;98986.34;;;28.18;35.32
28079;BME280;15388;42.238;24.684;2022-08-01T09:07:51;98970.16;;;28.06;35.54
28079;BME280;15388;42.238;24.684;2022-08-01T09:10:16;98973.47;;;28.18;35.47
28079;BME280;15388;42.238;24.684;2022-08-01T09:13:01;98974.06;;;28.26;35.45
28079;BME280;15388;42.238;24.684;2022-08-01T09:18:25;98981.19;;;28.27;35.70
28079;BME280;15388;42.238;24.684;2022-08-01T09:20:51;98969.19;;;28.33;34.80
28079;BME280;15388;42.238;24.684;2022-08-01T09:23:38;98974.59;;;28.22;34.32
28079;BME280;15388;42.238;24.684;2022-08-01T09:26:14;98953.38;;;28.45;35.24
28079;BME280;15388;42.238;24.684;2022-08-01T09:28:40;98958.88;;;28.56;34.93
28079;BME280;15388;42.238;24.684;2022-08-01T09:31:10;98960.50;;;28.72;35.33
28079;BME280;15388;42.238;24.684;2022-08-01T09:33:55;98963.72;;;28.33;34.77
28079;BME280;15388;42.238;24.684;2022-08-01T09:36:22;98956.34;;;28.39;35.83
28079;BME280;15388;42.238;24.684;2022-08-01T09:38:47;98953.38;;;28.61;35.59
28079;BME280;15388;42.238;24.684;2022-08-01T09:41:13;98955.88;;;28.73;35.16
28079;BME280;15388;42.238;24.684;2022-08-01T09:43:38;98956.13;;;28.56;34.69
28079;BME280;15388;42.238;24.684;2022-08-01T09:46:05;98935.31;;;28.55;35.07
28079;BME280;15388;42.238;24.684;2022-08-01T09:48:33;98928.22;;;28.69;34.99
28079;BME280;15388;42.238;24.684;2022-08-01T09:50:59;98938.63;;;28.78;35.36
28079;BME280;15388;42.238;24.684;2022-08-01T09:53:24;98941.69;;;29.13;34.82
28079;BME280;15388;42.238;24.684;2022-08-01T09:55:49;98934.81;;;29.05;34.57
28079;BME280;15388;42.238;24.684;2022-08-01T09:58:17;98939.72;;;28.87;34.11
28079;BME280;15388;42.238;24.684;2022-08-01T10:00:42;98939.19;;;28.74;34.25
28079;BME280;15388;42.238;24.684;2022-08-01T10:03:23;98935.34;;;28.91;35.45
28079;BME280;15388;42.238;24.684;2022-08-01T10:05:48;98932.34;;;29.24;35.00
28079;BME280;15388;42.238;24.684;2022-08-01T10:08:14;98956.72;;;29.26;34.34
28079;BME280;15388;42.238;24.684;2022-08-01T10:10:39;98934.25;;;29.29;34.56
28079;BME280;15388;42.238;24.684;2022-08-01T10:13:05;98931.50;;;29.55;35.05
28079;BME280;15388;42.238;24.684;2022-08-01T10:15:31;98939.97;;;29.53;33.80
28079;BME280;15388;42.238;24.684;2022-08-01T10:17:57;98934.22;;;29.49;34.37
28079;BME280;15388;42.238;24.684;2022-08-01T10:20:24;98925.16;;;29.65;33.98
28079;BME280;15388;42.238;24.684;2022-08-01T10:22:51;98919.94;;;29.68;34.37
28079;BME280;15388;42.238;24.684;2022-08-01T10:25:17;98921.00;;;29.83;34.22
28079;BME280;15388;42.238;24.684;2022-08-01T10:27:44;98924.78;;;29.92;34.04
28079;BME280;15388;42.238;24.684;2022-08-01T10:30:14;98925.44;;;29.63;33.64
28079;BME280;15388;42.238;24.684;2022-08-01T10:32:39;98922.75;;;29.42;34.34
28079;BME280;15388;42.238;24.684;2022-08-01T10:35:05;98912.25;;;29.75;33.90
28079;BME280;15388;42.238;24.684;2022-08-01T10:37:31;98914.59;;;30.03;34.55
28079;BME280;15388;42.238;24.684;2022-08-01T10:39:58;98914.22;;;30.25;34.00
28079;BME280;15388;42.238;24.684;2022-08-01T10:42:23;98926.06;;;30.21;33.08
28079;BME280;15388;42.238;24.684;2022-08-01T10:44:49;98909.06;;;30.19;33.35
28079;BME280;15388;42.238;24.684;2022-08-01T10:47:17;98915.03;;;30.31;33.00
28079;BME280;15388;42.238;24.684;2022-08-01T10:49:45;98931.72;;;30.40;32.86
28079;BME280;15388;42.238;24.684;2022-08-01T10:52:18;98903.88;;;30.07;32.89
28079;BME280;15388;42.238;24.684;2022-08-01T10:54:43;98910.34;;;30.37;33.18
28079;BME280;15388;42.238;24.684;2022-08-01T10:57:09;98904.94;;;30.11;33.43
28079;BME280;15388;42.238;24.684;2022-08-01T10:59:46;98904.13;;;30.21;33.25
28079;BME280;15388;42.238;24.684;2022-08-01T11:02:12;98906.59;;;30.07;32.82
28079;BME280;15388;42.238;24.684;2022-08-01T11:05:11;98909.00;;;30.29;33.04
28079;BME280;15388;42.238;24.684;2022-08-01T11:07:48;98906.81;;;30.26;32.46
28079;BME280;15388;42.238;24.684;2022-08-01T11:12:51;98900.13;;;29.87;33.83
28079;BME280;15388;42.238;24.684;2022-08-01T11:15:17;98911.63;;;29.94;34.13
28079;BME280;15388;42.238;24.684;2022-08-01T11:17:49;98908.28;;;30.03;33.46
28079;BME280;15388;42.238;24.684;2022-08-01T11:20:29;98892.91;;;30.07;32.64
28079;BME280;15388;42.238;24.684;2022-08-01T11:38:39;98893.59;;;30.38;32.05
28079;BME280;15388;42.238;24.684;2022-08-01T11:49:47;98885.94;;;30.30;31.12
28079;BME280;15388;42.238;24.684;2022-08-01T11:52:10;98880.44;;;30.35;32.08
28079;BME280;15388;42.238;24.684;2022-08-01T11:57:11;98872.78;;;30.67;32.35
28079;BME280;15388;42.238;24.684;2022-08-01T11:59:38;98878.09;;;31.18;32.05
28079;BME280;15388;42.238;24.684;2022-08-01T12:02:04;98876.19;;;31.18;31.29
28079;BME280;15388;42.238;24.684;2022-08-01T12:04:46;98869.06;;;31.17;30.39
28079;BME280;15388;42.238;24.684;2022-08-01T12:07:12;98862.53;;;31.08;31.15
28079;BME280;15388;42.238;24.684;2022-08-01T12:09:37;98876.53;;;31.11;31.05
28079;BME280;15388;42.238;24.684;2022-08-01T12:12:03;98872.41;;;31.09;30.58
28079;BME280;15388;42.238;24.684;2022-08-01T12:14:28;98862.13;;;30.95;31.74
28079;BME280;15388;42.238;24.684;2022-08-01T12:16:54;98868.78;;;30.89;31.16
28079;BME280;15388;42.238;24.684;2022-08-01T12:19:20;98864.13;;;30.89;31.69
28079;BME280;15388;42.238;24.684;2022-08-01T12:21:49;98873.53;;;30.78;31.23
28079;BME280;15388;42.238;24.684;2022-08-01T12:24:29;98868.03;;;30.78;31.54
28079;BME280;15388;42.238;24.684;2022-08-01T12:26:54;98862.44;;;31.18;30.98
28079;BME280;15388;42.238;24.684;2022-08-01T12:29:36;98857.34;;;31.36;31.50
28079;BME280;15388;42.238;24.684;2022-08-01T12:32:02;98840.88;;;31.31;30.89
28079;BME280;15388;42.238;24.684;2022-08-01T12:34:29;98865.59;;;30.76;30.77
28079;BME280;15388;42.238;24.684;2022-08-01T12:36:58;98862.56;;;30.73;31.30
28079;BME280;15388;42.238;24.684;2022-08-01T12:39:31;98860.13;;;30.76;30.98
28079;BME280;15388;42.238;24.684;2022-08-01T12:41:57;98842.47;;;30.83;31.25
28079;BME280;15388;42.238;24.684;2022-08-01T12:44:22;98856.66;;;30.60;32.12
28079;BME280;15388;42.238;24.684;2022-08-01T12:46:48;98874.09;;;30.40;31.50
28079;BME280;15388;42.238;24.684;2022-08-01T12:49:13;98856.59;;;30.25;31.90
28079;BME280;15388;42.238;24.684;2022-08-01T12:51:39;98854.38;;;30.33;32.44
28079;BME280;15388;42.238;24.684;2022-08-01T12:54:04;98854.97;;;30.24;32.01
28079;BME280;15388;42.238;24.684;2022-08-01T12:56:33;98852.03;;;30.50;32.57
28079;BME280;15388;42.238;24.684;2022-08-01T12:58:58;98847.63;;;30.89;32.80
28079;BME280;15388;42.238;24.684;2022-08-01T13:01:27;98848.41;;;30.95;31.41
28079;BME280;15388;42.238;24.684;2022-08-01T13:03:59;98846.19;;;30.62;31.55
28079;BME280;15388;42.238;24.684;2022-08-01T13:06:27;98846.81;;;30.54;31.22
28079;BME280;15388;42.238;24.684;2022-08-01T13:08:53;98843.91;;;30.40;31.22
28079;BME280;15388;42.238;24.684;2022-08-01T13:11:18;98846.75;;;30.59;31.20
28079;BME280;15388;42.238;24.684;2022-08-01T13:13:48;98848.91;;;30.97;30.71
28079;BME280;15388;42.238;24.684;2022-08-01T13:16:14;98856.09;;;31.23;30.74
28079;BME280;15388;42.238;24.684;2022-08-01T13:18:40;98848.34;;;31.00;30.72
28079;BME280;15388;42.238;24.684;2022-08-01T13:23:42;98851.88;;;30.76;31.20
28079;BME280;15388;42.238;24.684;2022-08-01T13:26:07;98846.06;;;30.78;31.49
28079;BME280;15388;42.238;24.684;2022-08-01T13:28:33;98833.81;;;31.00;32.09
28079;BME280;15388;42.238;24.684;2022-08-01T13:31:03;98836.59;;;31.19;30.80
28079;BME280;15388;42.238;24.684;2022-08-01T13:34:02;98830.13;;;31.59;30.13
28079;BME280;15388;42.238;24.684;2022-08-01T13:36:20;98834.91;;;31.72;30.56
28079;BME280;15388;42.238;24.684;2022-08-01T13:38:45;98839.16;;;31.40;29.46